Time;durP1;ratioP1;P1;durP2;ratioP2;P2;SDS_P1;SDS_P2;PMS_P1;PMS_P2;Temp;Humidity;BMP_temperature;BMP_pressure;BME280_temperature;BME280_humidity;BME280_pressure;Samples;Min_cycle;Max_cycle;Signal;HPM_P1;HPM_P2
2023/07/07 00:00:44;;;;;;;2.60;0.80;;;16.90;96.00;;;;;;5074522;28;20441;-76
2023/07/07 00:03:11;;;;;;;1.43;0.90;;;16.90;96.10;;;;;;5074732;28;20511;-76
2023/07/07 00:05:37;;;;;;;1.13;0.93;;;16.80;95.90;;;;;;5074684;28;20459;-76
2023/07/07 00:08:05;;;;;;;1.53;1.07;;;16.70;96.00;;;;;;5074850;28;20477;-76
2023/07/07 00:10:31;;;;;;;3.27;1.00;;;16.70;96.20;;;;;;5074524;28;20503;-76
2023/07/07 00:13:00;;;;;;;0.63;0.63;;;16.70;96.10;;;;;;5074575;28;20452;-76
2023/07/07 00:15:26;;;;;;;1.33;1.23;;;16.70;96.40;;;;;;5074207;28;20959;-76
2023/07/07 00:17:53;;;;;;;1.00;0.90;;;16.60;96.70;;;;;;5074437;28;20441;-77
2023/07/07 00:20:21;;;;;;;1.40;1.20;;;16.60;96.90;;;;;;5074037;28;20976;-77
2023/07/07 00:22:48;;;;;;;1.33;1.17;;;16.50;97.20;;;;;;5075184;28;20444;-76
2023/07/07 00:25:15;;;;;;;1.60;1.33;;;16.50;96.80;;;;;;5073986;28;20445;-76
2023/07/07 00:27:42;;;;;;;2.30;1.27;;;16.50;97.00;;;;;;5074149;28;20488;-76
2023/07/07 00:30:11;;;;;;;2.47;1.57;;;16.40;97.20;;;;;;5073720;28;20476;-76
2023/07/07 00:32:38;;;;;;;2.20;1.00;;;16.40;97.80;;;;;;5074075;28;20452;-76
2023/07/07 00:35:05;;;;;;;1.20;0.97;;;16.40;97.30;;;;;;5074139;28;20444;-76
2023/07/07 00:37:32;;;;;;;1.17;0.87;;;16.40;97.70;;;;;;5074097;28;20440;-76
2023/07/07 00:39:59;;;;;;;1.57;1.10;;;16.30;97.90;;;;;;5073640;28;20476;-76
2023/07/07 00:42:25;;;;;;;1.37;1.23;;;16.30;97.90;;;;;;5073996;28;20452;-76
2023/07/07 00:45:14;;;;;;;1.43;1.00;;;16.20;97.70;;;;;;5073172;28;20945;-76
2023/07/07 00:47:44;;;;;;;1.27;1.03;;;16.20;98.10;;;;;;5073866;28;20468;-76
2023/07/07 00:50:13;;;;;;;5.20;0.97;;;16.20;98.20;;;;;;5073528;28;20834;-76
2023/07/07 00:52:43;;;;;;;1.57;1.33;;;16.20;98.30;;;;;;5073851;28;20445;-76
2023/07/07 00:55:13;;;;;;;1.43;1.00;;;16.10;98.50;;;;;;5073791;28;20449;-77
2023/07/07 00:57:40;;;;;;;4.00;1.17;;;16.10;98.60;;;;;;5074281;28;20432;-76
2023/07/07 01:00:08;;;;;;;1.33;1.23;;;16.10;98.70;;;;;;5073393;28;20838;-76
2023/07/07 01:02:36;;;;;;;1.23;1.13;;;16.00;98.60;;;;;;5073696;28;20441;-76
2023/07/07 01:05:05;;;;;;;0.70;0.70;;;16.00;99.10;;;;;;5073924;28;20445;-76
2023/07/07 01:07:39;;;;;;;1.73;1.13;;;16.00;99.30;;;;;;5073603;28;20550;-76
2023/07/07 01:10:07;;;;;;;1.40;0.97;;;15.90;99.40;;;;;;5073531;28;20476;-76
2023/07/07 01:12:34;;;;;;;1.33;0.90;;;15.90;99.50;;;;;;5073269;28;20969;-76
2023/07/07 01:15:03;;;;;;;1.13;1.03;;;15.90;99.70;;;;;;5073550;28;20448;-76
2023/07/07 01:17:41;;;;;;;3.10;1.30;;;15.90;99.90;;;;;;5073153;28;20480;-76
2023/07/07 01:20:23;;;;;;;1.00;0.87;;;15.90;99.80;;;;;;5073709;28;20464;-76
2023/07/07 01:23:22;;;;;;;10.13;1.10;;;15.90;99.90;;;;;;5073754;28;20425;-76
2023/07/07 01:26:14;;;;;;;1.57;0.90;;;15.90;99.90;;;;;;5073449;28;20432;-76
2023/07/07 01:29:05;;;;;;;1.70;1.10;;;15.80;99.90;;;;;;5073083;28;20494;-76
2023/07/07 01:31:40;;;;;;;1.53;1.43;;;15.80;99.90;;;;;;5073399;28;20431;-76
2023/07/07 01:34:08;;;;;;;1.83;0.90;;;15.80;99.90;;;;;;5073361;28;20431;-76
2023/07/07 01:36:35;;;;;;;2.20;1.53;;;15.80;99.90;;;;;;5073355;28;20445;-76
2023/07/07 01:39:02;;;;;;;1.67;1.20;;;15.80;99.90;;;;;;5073220;28;20539;-76
2023/07/07 01:41:32;;;;;;;2.00;1.30;;;15.80;99.90;;;;;;5072938;28;20933;-76
2023/07/07 01:44:05;;;;;;;1.93;1.07;;;15.80;99.90;;;;;;5073840;28;20448;-76
2023/07/07 01:46:40;;;;;;;1.17;1.07;;;15.70;99.90;;;;;;5073268;28;20432;-76
2023/07/07 01:49:15;;;;;;;4.30;1.10;;;15.60;99.90;;;;;;5073086;28;20495;-76
2023/07/07 01:51:46;;;;;;;1.53;1.30;;;15.70;99.90;;;;;;5073249;28;20440;-76
2023/07/07 01:54:14;;;;;;;0.70;0.70;;;15.70;99.90;;;;;;5072872;28;20500;-76
2023/07/07 01:56:44;;;;;;;3.67;1.30;;;15.70;99.90;;;;;;5074156;28;20448;-76
2023/07/07 01:59:12;;;;;;;2.70;1.40;;;15.70;99.90;;;;;;5077059;28;20465;-76
2023/07/07 02:01:40;;;;;;;1.67;1.10;;;15.70;99.90;;;;;;5077132;28;20527;-76
2023/07/07 02:04:07;;;;;;;1.07;0.97;;;15.60;99.90;;;;;;5077065;28;20453;-76
2023/07/07 02:06:34;;;;;;;2.20;1.07;;;15.50;99.90;;;;;;5077298;28;20437;-77
2023/07/07 02:09:00;;;;;;;2.60;1.57;;;15.60;99.90;;;;;;5077111;28;20499;-76
2023/07/07 02:11:27;;;;;;;1.87;1.17;;;15.50;99.90;;;;;;5076901;28;20536;-76
2023/07/07 02:13:54;;;;;;;2.60;1.40;;;15.50;99.90;;;;;;5076549;28;20444;-76
2023/07/07 02:16:21;;;;;;;1.87;1.63;;;15.40;99.90;;;;;;5076782;28;20445;-76
2023/07/07 02:18:49;;;;;;;1.37;1.20;;;15.40;99.90;;;;;;5076657;28;20468;-76
2023/07/07 02:21:16;;;;;;;1.80;1.20;;;15.40;99.90;;;;;;5076683;28;20456;-77
2023/07/07 02:23:44;;;;;;;1.60;0.90;;;15.30;99.90;;;;;;5076418;28;20507;-77
2023/07/07 02:26:10;;;;;;;2.17;1.00;;;15.30;99.90;;;;;;5077127;28;20445;-77
2023/07/07 02:28:37;;;;;;;2.10;1.30;;;15.30;99.90;;;;;;5076134;28;20492;-77
2023/07/07 02:31:04;;;;;;;0.93;0.90;;;15.30;99.90;;;;;;5076441;28;20437;-77
2023/07/07 02:33:31;;;;;;;3.53;1.20;;;15.20;99.90;;;;;;5076474;28;20453;-77
2023/07/07 02:36:02;;;;;;;1.20;1.10;;;15.20;99.90;;;;;;5076157;28;20941;-77
2023/07/07 02:38:29;;;;;;;0.80;0.80;;;15.20;99.90;;;;;;5076370;28;20433;-77
2023/07/07 02:40:56;;;;;;;2.40;1.00;;;15.20;99.90;;;;;;5076306;28;20448;-77
2023/07/07 02:43:22;;;;;;;1.37;1.10;;;15.20;99.90;;;;;;5076325;28;20452;-77
2023/07/07 02:45:49;;;;;;;0.70;0.70;;;15.10;99.90;;;;;;5076012;28;20932;-77
2023/07/07 02:48:18;;;;;;;0.80;0.80;;;15.10;99.90;;;;;;5076048;28;20476;-77
2023/07/07 02:50:45;;;;;;;1.20;0.90;;;15.10;99.90;;;;;;5076157;28;20445;-77
2023/07/07 02:53:14;;;;;;;1.53;1.17;;;15.20;99.90;;;;;;5075800;28;20472;-77
2023/07/07 02:55:40;;;;;;;2.17;1.10;;;15.10;99.90;;;;;;5076099;28;20441;-77
2023/07/07 02:58:07;;;;;;;1.13;1.07;;;15.00;99.90;;;;;;5076630;28;20785;-77
2023/07/07 03:00:34;;;;;;;1.40;1.00;;;15.00;99.90;;;;;;5075944;28;20472;-77
2023/07/07 03:03:00;;;;;;;1.20;1.10;;;15.00;99.90;;;;;;5075976;28;20441;-77
2023/07/07 03:05:27;;;;;;;2.70;1.30;;;14.90;99.90;;;;;;5076157;28;20819;-77
2023/07/07 03:07:54;;;;;;;4.00;1.47;;;14.90;99.90;;;;;;5075381;28;20488;-77
2023/07/07 03:10:22;;;;;;;1.43;0.80;;;14.90;99.90;;;;;;5075269;28;20465;-77
2023/07/07 03:12:49;;;;;;;2.10;1.40;;;14.80;99.90;;;;;;5075788;28;20467;-77
2023/07/07 03:15:20;;;;;;;3.00;1.60;;;14.80;99.90;;;;;;5075410;28;20959;-77
2023/07/07 03:17:47;;;;;;;1.43;1.33;;;14.80;99.90;;;;;;5075391;28;20889;-77
2023/07/07 03:20:14;;;;;;;2.10;1.70;;;14.80;99.90;;;;;;5075565;28;20469;-77
2023/07/07 03:22:40;;;;;;;2.70;0.97;;;14.70;99.90;;;;;;5075873;28;20445;-77
2023/07/07 03:25:09;;;;;;;1.10;1.00;;;14.70;99.90;;;;;;5075560;28;20456;-77
2023/07/07 03:27:37;;;;;;;2.80;1.03;;;14.70;99.90;;;;;;5075194;28;20456;-77
2023/07/07 03:30:04;;;;;;;2.93;0.83;;;14.70;99.90;;;;;;5075055;28;20493;-77
2023/07/07 03:32:31;;;;;;;1.60;1.37;;;14.70;99.90;;;;;;5075424;28;20452;-77
2023/07/07 03:34:57;;;;;;;1.20;0.80;;;14.70;99.90;;;;;;5075069;28;20944;-77
2023/07/07 03:37:24;;;;;;;1.27;1.17;;;14.70;99.90;;;;;;5075577;28;20453;-77
2023/07/07 03:39:51;;;;;;;1.33;1.20;;;14.70;99.90;;;;;;5075191;28;20469;-77
2023/07/07 03:42:17;;;;;;;2.10;1.10;;;14.70;99.90;;;;;;5075222;28;20471;-77
2023/07/07 03:44:45;;;;;;;3.13;1.10;;;14.70;99.90;;;;;;5075198;28;20444;-77
2023/07/07 03:47:12;;;;;;;0.97;0.87;;;14.70;99.90;;;;;;5075091;28;20646;-77
2023/07/07 03:49:39;;;;;;;2.50;1.00;;;14.80;99.90;;;;;;5074978;28;20487;-77
2023/07/07 03:52:06;;;;;;;1.70;0.90;;;14.80;99.90;;;;;;5075066;28;20441;-77
2023/07/07 03:54:33;;;;;;;4.50;1.07;;;14.80;99.90;;;;;;5075217;28;20440;-77
2023/07/07 03:56:59;;;;;;;1.13;0.80;;;14.90;99.90;;;;;;5074908;28;20806;-77
2023/07/07 03:59:27;;;;;;;1.20;0.83;;;14.90;99.90;;;;;;5074791;28;20465;-77
2023/07/07 04:01:55;;;;;;;2.00;0.90;;;15.00;99.90;;;;;;5074780;28;20457;-77
2023/07/07 04:04:22;;;;;;;1.60;1.20;;;15.00;99.90;;;;;;5074469;28;20929;-77
2023/07/07 04:06:48;;;;;;;1.47;1.30;;;15.00;99.90;;;;;;5074727;28;20445;-77
2023/07/07 04:09:15;;;;;;;1.40;0.83;;;15.10;99.90;;;;;;5074543;28;20481;-77
2023/07/07 04:11:42;;;;;;;2.97;1.13;;;15.10;99.90;;;;;;5074634;28;20811;-77
2023/07/07 04:14:08;;;;;;;1.93;0.80;;;15.20;99.90;;;;;;5074568;28;20457;-77
2023/07/07 04:16:35;;;;;;;2.23;0.90;;;15.20;99.90;;;;;;5074551;28;20429;-77
2023/07/07 04:19:03;;;;;;;2.07;1.10;;;15.20;99.90;;;;;;5074404;28;20465;-77
2023/07/07 04:21:30;;;;;;;1.10;1.00;;;15.30;99.90;;;;;;5073479;28;20452;-77
2023/07/07 04:23:59;;;;;;;1.50;1.20;;;15.30;99.90;;;;;;5074364;28;20961;-77
2023/07/07 04:26:27;;;;;;;1.23;1.07;;;15.30;99.90;;;;;;5074305;28;20452;-77
2023/07/07 04:28:55;;;;;;;1.90;1.47;;;15.40;99.90;;;;;;5073774;28;20484;-77
2023/07/07 04:31:24;;;;;;;2.23;1.13;;;15.40;99.90;;;;;;5074255;28;20452;-77
2023/07/07 04:33:51;;;;;;;1.23;1.10;;;15.40;99.90;;;;;;5074184;28;20453;-77
2023/07/07 04:36:19;;;;;;;1.60;1.50;;;15.40;99.90;;;;;;5074132;28;20445;-77
2023/07/07 04:38:46;;;;;;;1.20;1.10;;;15.40;99.90;;;;;;5074022;28;20865;-77
2023/07/07 04:41:15;;;;;;;6.77;1.80;;;15.50;99.90;;;;;;5073957;28;20441;-77
2023/07/07 04:43:44;;;;;;;3.13;1.23;;;15.50;99.90;;;;;;5074044;28;20449;-77
2023/07/07 04:46:13;;;;;;;1.57;1.40;;;15.60;99.90;;;;;;5073969;28;20464;-77
2023/07/07 04:48:40;;;;;;;4.93;1.33;;;15.50;99.90;;;;;;5073464;28;20484;-77
2023/07/07 04:51:10;;;;;;;1.53;1.20;;;15.70;99.90;;;;;;5073909;28;20476;-77
2023/07/07 04:53:40;;;;;;;2.60;1.77;;;15.70;99.90;;;;;;5073882;28;20843;-77
2023/07/07 04:56:09;;;;;;;4.90;1.60;;;15.80;99.90;;;;;;5073875;28;20451;-77
2023/07/07 04:58:37;;;;;;;2.77;1.60;;;15.80;99.90;;;;;;5073523;28;20909;-77
2023/07/07 05:01:08;;;;;;;1.40;1.30;;;15.80;99.90;;;;;;5073411;28;20959;-77
2023/07/07 05:03:35;;;;;;;1.87;1.20;;;15.90;99.90;;;;;;5073371;28;20933;-77
2023/07/07 05:06:03;;;;;;;2.10;1.50;;;15.90;99.90;;;;;;5073659;28;20514;-77
2023/07/07 05:08:30;;;;;;;1.40;1.30;;;16.00;99.90;;;;;;5073481;28;20453;-77
2023/07/07 05:10:58;;;;;;;2.43;1.70;;;16.00;99.90;;;;;;5073615;28;20491;-77
2023/07/07 05:13:25;;;;;;;6.03;1.83;;;16.10;99.90;;;;;;5073581;28;20465;-77
2023/07/07 05:15:59;;;;;;;1.67;1.57;;;16.20;99.90;;;;;;5073264;28;20982;-77
2023/07/07 05:18:26;;;;;;;1.43;1.33;;;16.20;99.90;;;;;;5073170;28;20794;-77
2023/07/07 05:20:53;;;;;;;3.10;1.33;;;16.30;99.90;;;;;;5073517;28;20463;-77
2023/07/07 05:23:19;;;;;;;3.73;1.00;;;16.40;99.90;;;;;;5073172;28;20440;-77
2023/07/07 05:25:46;;;;;;;2.67;1.30;;;16.50;99.90;;;;;;5073402;28;20448;-77
2023/07/07 05:28:14;;;;;;;1.00;0.90;;;16.50;99.90;;;;;;5073066;28;20476;-77
2023/07/07 05:30:41;;;;;;;2.10;1.60;;;16.60;99.90;;;;;;5073376;28;20468;-77
2023/07/07 05:33:08;;;;;;;2.40;1.10;;;16.70;99.90;;;;;;5073067;28;20785;-77
2023/07/07 05:35:35;;;;;;;1.57;1.47;;;16.80;99.90;;;;;;5073349;28;20464;-77
2023/07/07 05:38:03;;;;;;;4.37;1.57;;;16.90;99.90;;;;;;5073326;28;20445;-77
2023/07/07 05:40:29;;;;;;;2.33;1.53;;;17.00;99.90;;;;;;5073194;28;20460;-77
2023/07/07 05:42:56;;;;;;;2.80;1.30;;;17.10;99.90;;;;;;5073264;28;20448;-77
2023/07/07 05:45:24;;;;;;;2.60;1.50;;;17.20;99.90;;;;;;5073268;28;20448;-77
2023/07/07 05:47:51;;;;;;;1.77;1.67;;;17.40;99.90;;;;;;5073208;28;20452;-77
2023/07/07 05:50:18;;;;;;;2.77;2.23;;;17.40;99.90;;;;;;5072750;28;20483;-77
2023/07/07 05:52:44;;;;;;;1.90;1.07;;;17.60;99.90;;;;;;5073196;28;20451;-77
2023/07/07 05:55:24;;;;;;;3.73;1.60;;;17.70;99.90;;;;;;5073132;28;20452;-77
2023/07/07 05:57:51;;;;;;;1.60;1.40;;;17.90;99.90;;;;;;5073152;28;20436;-77
2023/07/07 06:00:18;;;;;;;7.13;1.60;;;18.10;99.90;;;;;;5073025;28;20461;-77
2023/07/07 06:02:46;;;;;;;2.03;1.13;;;18.20;99.90;;;;;;5073061;28;20487;-77
2023/07/07 06:05:13;;;;;;;5.27;2.10;;;18.40;99.90;;;;;;5073052;28;20448;-77
2023/07/07 06:07:39;;;;;;;1.40;1.10;;;18.50;99.90;;;;;;5073052;28;20807;-77
2023/07/07 06:10:08;;;;;;;2.33;1.20;;;18.70;99.90;;;;;;5072793;28;20488;-77
2023/07/07 06:12:35;;;;;;;1.63;1.53;;;18.70;99.90;;;;;;5073779;28;20471;-77
2023/07/07 06:15:02;;;;;;;2.80;1.13;;;19.00;99.90;;;;;;5072974;28;20452;-77
2023/07/07 06:17:30;;;;;;;1.63;1.53;;;19.20;99.90;;;;;;5072921;28;20449;-77
2023/07/07 06:19:58;;;;;;;1.60;1.20;;;19.30;99.90;;;;;;5072526;28;20461;-77
2023/07/07 06:22:25;;;;;;;2.00;1.80;;;19.50;99.90;;;;;;5072846;28;20456;-77
2023/07/07 06:24:52;;;;;;;5.33;1.50;;;19.60;99.90;;;;;;5072833;28;20448;-77
2023/07/07 06:27:19;;;;;;;7.90;1.67;;;19.70;99.90;;;;;;5072786;28;20456;-77
2023/07/07 06:29:46;;;;;;;4.37;1.50;;;19.90;99.90;;;;;;5072250;28;20484;-77
2023/07/07 06:32:13;;;;;;;1.77;1.00;;;20.10;99.90;;;;;;5072486;28;20452;-77
2023/07/07 06:34:40;;;;;;;1.67;1.57;;;20.20;99.90;;;;;;5072795;28;20445;-77
2023/07/07 06:37:08;;;;;;;1.33;1.23;;;20.40;99.90;;;;;;5072811;28;20449;-77
2023/07/07 06:39:35;;;;;;;5.10;2.67;;;20.50;99.90;;;;;;5072664;28;20472;-77
2023/07/07 06:42:02;;;;;;;2.20;1.20;;;20.60;99.90;;;;;;5072753;28;20456;-77
2023/07/07 06:44:29;;;;;;;2.37;1.47;;;20.80;99.90;;;;;;5074518;28;20447;-77
2023/07/07 06:46:56;;;;;;;1.80;1.70;;;21.10;99.90;;;;;;5076296;28;20452;-77
2023/07/07 06:49:22;;;;;;;1.20;0.93;;;21.30;99.90;;;;;;5076165;28;20476;-77
2023/07/07 06:51:49;;;;;;;1.53;1.30;;;21.60;99.90;;;;;;5076301;28;20425;-77
2023/07/07 06:54:17;;;;;;;1.83;1.23;;;21.90;99.90;;;;;;5075943;28;20785;-77
2023/07/07 06:56:44;;;;;;;2.20;1.30;;;22.10;99.90;;;;;;5076165;28;20433;-77
2023/07/07 06:59:10;;;;;;;1.53;1.23;;;22.20;99.90;;;;;;5075729;28;20456;-77
2023/07/07 07:01:37;;;;;;;1.23;1.13;;;22.30;99.90;;;;;;5076047;28;20451;-77
2023/07/07 07:04:04;;;;;;;1.03;0.90;;;22.10;99.90;;;;;;5075859;28;20889;-77
2023/07/07 07:06:31;;;;;;;3.63;1.67;;;22.30;99.90;;;;;;5075952;28;20519;-77
2023/07/07 07:08:58;;;;;;;2.80;1.83;;;22.40;99.90;;;;;;5075735;28;20468;-77
2023/07/07 07:11:26;;;;;;;2.90;1.87;;;22.60;99.90;;;;;;5075818;28;20452;-77
2023/07/07 07:13:52;;;;;;;1.53;1.43;;;22.80;99.90;;;;;;5075821;28;20440;-77
2023/07/07 07:16:19;;;;;;;1.87;1.33;;;23.00;99.90;;;;;;5075764;28;20209;-77
2023/07/07 07:18:46;;;;;;;2.47;1.30;;;23.00;99.60;;;;;;5075668;28;20233;-77
2023/07/07 07:21:13;;;;;;;4.10;1.83;;;23.00;99.40;;;;;;5075689;28;20213;-77
2023/07/07 07:23:40;;;;;;;1.88;1.33;;;23.30;98.90;;;;;;5075348;28;20670;-77
2023/07/07 07:26:06;;;;;;;2.28;1.50;;;23.60;98.30;;;;;;5075544;28;20208;-77
2023/07/07 07:28:34;;;;;;;1.77;1.20;;;23.80;98.90;;;;;;5075279;28;20244;-78
2023/07/07 07:31:01;;;;;;;2.08;1.58;;;24.00;98.30;;;;;;5075386;28;20229;-78
2023/07/07 07:33:28;;;;;;;4.10;1.70;;;24.20;97.40;;;;;;5075118;28;20209;-77
2023/07/07 07:35:55;;;;;;;2.53;1.70;;;24.40;97.00;;;;;;5075378;28;20201;-77
2023/07/07 07:38:22;;;;;;;2.42;1.48;;;24.60;96.80;;;;;;5074935;28;20202;-77
2023/07/07 07:40:52;;;;;;;2.40;1.48;;;24.60;96.60;;;;;;5075271;28;20221;-78
2023/07/07 07:43:19;;;;;;;1.90;1.13;;;24.40;96.60;;;;;;5075008;28;20197;-77
2023/07/07 07:45:47;;;;;;;1.70;1.48;;;24.50;96.90;;;;;;5075184;28;20209;-77
2023/07/07 07:48:14;;;;;;;2.50;1.50;;;24.70;96.80;;;;;;5074748;28;20206;-77
2023/07/07 07:50:40;;;;;;;2.53;1.88;;;25.00;95.70;;;;;;5075008;28;20228;-77
2023/07/07 07:53:07;;;;;;;1.50;1.40;;;25.30;95.50;;;;;;5074730;28;20202;-77
2023/07/07 07:55:34;;;;;;;1.65;1.02;;;25.60;94.10;;;;;;5074757;28;20202;-78
2023/07/07 07:58:01;;;;;;;1.88;1.27;;;25.70;94.20;;;;;;5074590;28;20198;-78
2023/07/07 08:00:27;;;;;;;1.65;1.20;;;25.70;93.80;;;;;;5074811;28;20222;-77
2023/07/07 08:02:55;;;;;;;1.50;1.20;;;25.70;93.50;;;;;;5074812;28;20266;-77
2023/07/07 08:05:22;;;;;;;1.38;1.27;;;25.70;93.30;;;;;;5074793;28;20567;-77
2023/07/07 08:07:49;;;;;;;1.75;1.38;;;26.00;92.80;;;;;;5074748;28;20285;-79
2023/07/07 08:10:17;;;;;;;1.70;1.30;;;26.10;93.10;;;;;;5074569;28;20229;-78
2023/07/07 08:12:43;;;;;;;3.05;1.27;;;26.30;91.70;;;;;;5074636;28;20202;-78
2023/07/07 08:15:12;;;;;;;2.20;1.70;;;26.30;91.30;;;;;;5074583;28;20202;-77
2023/07/07 08:17:39;;;;;;;2.65;1.48;;;26.50;91.40;;;;;;5074520;28;20202;-77
2023/07/07 08:20:16;;;;;;;2.17;1.63;;;26.90;90.90;;;;;;5074406;28;20218;-77
2023/07/07 08:22:43;;;;;;;1.60;1.25;;;27.10;90.00;;;;;;5075318;28;20190;-77
2023/07/07 08:25:10;;;;;;;5.65;1.20;;;27.50;88.80;;;;;;5074090;28;20199;-78
2023/07/07 08:27:37;;;;;;;1.10;1.00;;;28.00;86.50;;;;;;5074040;28;20680;-77
2023/07/07 08:30:04;;;;;;;1.40;1.30;;;28.40;84.70;;;;;;5073774;28;20239;-78
2023/07/07 08:32:31;;;;;;;1.90;1.40;;;28.70;82.00;;;;;;5074254;28;20205;-78
2023/07/07 08:34:58;;;;;;;1.77;1.27;;;28.90;82.00;;;;;;5073929;28;20210;-78
2023/07/07 08:37:28;;;;;;;2.75;1.20;;;29.20;81.70;;;;;;5074116;28;20213;-78
2023/07/07 08:39:55;;;;;;;4.75;1.15;;;29.30;79.70;;;;;;5074549;28;20233;-79
2023/07/07 08:42:26;;;;;;;1.63;1.45;;;29.40;76.30;;;;;;5073797;28;20186;-79
2023/07/07 08:44:54;;;;;;;2.10;1.40;;;29.10;77.60;;;;;;5074115;28;20205;-79
2023/07/07 08:48:03;;;;;;;1.60;1.50;;;28.80;77.00;;;;;;5073646;28;20684;-79
2023/07/07 08:50:37;;;;;;;1.55;1.15;;;28.60;76.10;;;;;;5037796;28;20238;-79
2023/07/07 08:53:22;;;;;;;1.52;1.33;;;28.40;77.60;;;;;;5073658;28;20222;-79
2023/07/07 08:55:59;;;;;;;1.25;0.90;;;28.40;79.40;;;;;;5073903;28;20557;-79
2023/07/07 08:58:35;;;;;;;3.55;1.52;;;28.50;77.60;;;;;;5073739;28;20199;-79
2023/07/07 09:01:18;;;;;;;1.73;1.40;;;28.30;75.40;;;;;;5073818;28;20179;-79
2023/07/07 09:04:02;;;;;;;1.77;1.40;;;28.20;75.70;;;;;;5073778;28;20193;-78
2023/07/07 09:06:41;;;;;;;2.17;1.58;;;28.40;76.20;;;;;;5073174;28;20201;-79
2023/07/07 09:09:18;;;;;;;1.73;1.50;;;28.60;70.70;;;;;;5073641;28;20234;-79
2023/07/07 09:12:00;;;;;;;1.80;1.50;;;28.70;69.90;;;;;;5073590;28;20226;-78
2023/07/07 09:14:28;;;;;;;3.53;1.63;;;29.00;70.30;;;;;;5073635;28;20196;-78
2023/07/07 09:16:58;;;;;;;2.20;1.70;;;29.20;71.10;;;;;;5073536;28;20213;-80
2023/07/07 09:19:30;;;;;;;2.15;1.90;;;29.30;67.70;;;;;;5073248;28;20306;-79
2023/07/07 09:22:00;;;;;;;2.03;1.33;;;29.10;68.30;;;;;;5073206;28;20688;-79
2023/07/07 09:24:33;;;;;;;1.85;1.73;;;29.00;66.10;;;;;;5073200;28;20639;-79
2023/07/07 09:27:04;;;;;;;3.22;1.42;;;28.70;64.50;;;;;;5073164;28;20662;-78
2023/07/07 09:29:32;;;;;;;1.92;1.77;;;28.40;65.20;;;;;;5072979;28;20237;-78
2023/07/07 09:32:02;;;;;;;2.67;1.55;;;28.40;63.40;;;;;;5072985;28;20226;-78
2023/07/07 09:34:30;;;;;;;1.85;1.75;;;28.30;62.70;;;;;;5073078;28;20194;-79
2023/07/07 09:37:06;;;;;;;2.20;1.27;;;28.10;62.00;;;;;;5073303;28;20208;-79
2023/07/07 09:39:48;;;;;;;3.60;1.60;;;28.00;62.90;;;;;;5073240;28;20228;-79
2023/07/07 09:42:28;;;;;;;1.55;1.30;;;27.90;63.90;;;;;;5073346;28;20212;-79
2023/07/07 09:45:09;;;;;;;4.20;1.23;;;27.90;65.40;;;;;;5074085;28;20201;-79
2023/07/07 09:47:43;;;;;;;3.28;1.63;;;27.90;64.00;;;;;;5073194;28;20204;-80
2023/07/07 09:50:16;;;;;;;2.47;1.88;;;28.00;64.00;;;;;;5073150;28;20221;-79
2023/07/07 09:52:47;;;;;;;2.50;2.05;;;28.10;63.20;;;;;;5073282;28;20182;-78
2023/07/07 09:55:20;;;;;;;2.55;1.40;;;28.40;60.20;;;;;;5073219;28;20178;-79
2023/07/07 09:57:55;;;;;;;2.08;1.88;;;28.40;62.00;;;;;;5073163;28;20557;-78
2023/07/07 10:00:24;;;;;;;2.72;1.58;;;28.50;63.60;;;;;;5073069;28;20235;-78
2023/07/07 10:02:51;;;;;;;1.23;1.10;;;28.60;62.40;;;;;;5073165;28;20202;-79
2023/07/07 10:05:24;;;;;;;3.05;1.20;;;28.80;61.70;;;;;;5073131;28;20213;-78
2023/07/07 10:07:52;;;;;;;3.03;1.70;;;28.90;59.10;;;;;;5073117;28;20197;-78
2023/07/07 10:10:20;;;;;;;2.25;1.63;;;28.90;58.10;;;;;;5072898;28;20230;-78
2023/07/07 10:12:47;;;;;;;2.83;1.90;;;28.90;58.20;;;;;;5073025;28;20205;-79
2023/07/07 10:15:36;;;;;;;2.83;1.88;;;28.90;57.90;;;;;;5072997;28;20228;-78
2023/07/07 10:18:12;;;;;;;1.70;1.45;;;28.80;58.20;;;;;;5072702;28;20202;-78
2023/07/07 10:20:39;;;;;;;2.97;1.92;;;28.80;58.60;;;;;;5076827;28;20557;-78
2023/07/07 10:23:10;;;;;;;3.00;2.03;;;28.90;57.30;;;;;;5076726;28;20280;-78
2023/07/07 10:25:40;;;;;;;3.45;2.13;;;29.00;57.40;;;;;;5076493;28;20195;-79
2023/07/07 10:28:11;;;;;;;2.50;1.88;;;29.00;55.30;;;;;;5076297;28;20198;-78
2023/07/07 10:30:39;;;;;;;2.00;1.63;;;28.90;56.90;;;;;;5076582;28;20210;-78
2023/07/07 10:33:09;;;;;;;2.88;2.30;;;28.90;57.90;;;;;;5076615;28;20235;-79
2023/07/07 10:35:35;;;;;;;2.60;2.00;;;28.90;58.50;;;;;;5076223;28;20677;-78
2023/07/07 10:38:04;;;;;;;2.72;1.90;;;28.90;58.70;;;;;;5076501;28;20205;-78
2023/07/07 10:40:31;;;;;;;1.65;1.55;;;29.00;59.60;;;;;;5076030;28;20714;-78
2023/07/07 10:42:59;;;;;;;5.53;2.13;;;29.00;59.30;;;;;;5076044;28;20566;-78
2023/07/07 10:45:26;;;;;;;2.83;2.17;;;29.10;58.30;;;;;;5076231;28;20207;-78
2023/07/07 10:47:53;;;;;;;2.17;1.98;;;29.10;58.10;;;;;;5075953;28;20206;-79
2023/07/07 10:50:24;;;;;;;4.30;2.45;;;29.00;57.40;;;;;;5076147;28;20230;-78
2023/07/07 10:53:06;;;;;;;3.83;2.65;;;28.90;58.50;;;;;;5076278;28;20214;-79
2023/07/07 10:55:38;;;;;;;3.33;1.77;;;29.00;59.20;;;;;;5076232;28;20186;-78
2023/07/07 10:58:20;;;;;;;3.03;2.10;;;29.00;59.10;;;;;;5076154;28;20187;-78
2023/07/07 11:00:59;;;;;;;2.75;1.70;;;28.90;59.60;;;;;;5076092;28;20178;-79
2023/07/07 11:03:54;;;;;;;2.67;2.15;;;28.90;59.40;;;;;;5076078;28;20203;-79
2023/07/07 11:06:30;;;;;;;2.35;1.73;;;29.00;60.60;;;;;;5075833;28;20203;-79
2023/07/07 11:09:12;;;;;;;2.10;1.85;;;29.30;58.50;;;;;;5075871;28;20222;-79
2023/07/07 11:11:47;;;;;;;2.42;1.77;;;29.80;57.90;;;;;;5075513;28;20697;-79
2023/07/07 11:14:38;;;;;;;3.83;1.70;;;30.30;56.30;;;;;;5075909;28;20221;-79
2023/07/07 11:17:17;;;;;;;4.65;1.92;;;30.50;56.50;;;;;;5075812;28;20191;-78
2023/07/07 11:19:59;;;;;;;2.13;1.92;;;30.20;57.60;;;;;;5076522;28;20224;-79
2023/07/07 11:22:42;;;;;;;3.38;1.95;;;30.00;58.40;;;;;;5075420;28;20657;-79
2023/07/07 11:25:20;;;;;;;3.38;2.03;;;29.70;58.60;;;;;;5075688;28;20191;-79
2023/07/07 11:27:58;;;;;;;2.58;2.08;;;29.60;58.00;;;;;;5075634;28;20217;-78
2023/07/07 11:30:33;;;;;;;1.70;1.33;;;29.40;57.70;;;;;;5074880;28;20224;-78
2023/07/07 11:33:14;;;;;;;2.80;2.38;;;29.30;58.80;;;;;;5075207;28;20662;-78
2023/07/07 11:35:53;;;;;;;3.17;1.85;;;29.30;57.60;;;;;;5075503;28;20204;-78
2023/07/07 11:38:36;;;;;;;2.13;1.40;;;29.30;57.60;;;;;;5075339;28;20211;-79
2023/07/07 11:41:13;;;;;;;3.20;2.00;;;29.30;57.60;;;;;;5075066;28;20585;-79
2023/07/07 11:44:05;;;;;;;3.30;1.88;;;29.20;53.20;;;;;;5075313;28;20226;-79
2023/07/07 11:46:47;;;;;;;1.70;1.60;;;29.20;54.00;;;;;;5075513;28;20631;-79
2023/07/07 11:49:36;;;;;;;3.78;2.20;;;29.20;53.30;;;;;;5074905;28;20227;-78
2023/07/07 11:52:14;;;;;;;3.63;2.83;;;29.10;54.60;;;;;;5074764;28;20577;-78
2023/07/07 11:55:03;;;;;;;2.30;1.90;;;29.20;55.10;;;;;;5074782;28;20655;-78
2023/07/07 11:57:46;;;;;;;3.50;1.88;;;29.30;54.20;;;;;;5075006;28;20196;-78
2023/07/07 12:00:34;;;;;;;2.22;1.73;;;29.30;53.10;;;;;;5074897;28;20231;-78
2023/07/07 12:03:36;;;;;;;6.35;2.65;;;29.30;52.30;;;;;;5074509;28;20206;-79
2023/07/07 12:06:10;;;;;;;4.95;2.35;;;29.30;52.50;;;;;;5072267;28;20202;-78
2023/07/07 12:08:41;;;;;;;4.45;1.63;;;29.30;52.70;;;;;;5074487;28;20234;-78
2023/07/07 12:11:13;;;;;;;2.88;1.58;;;29.30;51.60;;;;;;5074704;28;20215;-79
2023/07/07 12:13:51;;;;;;;3.60;2.05;;;29.20;51.10;;;;;;5074410;28;20734;-79
2023/07/07 12:16:21;;;;;;;1.58;1.33;;;29.10;50.70;;;;;;5074703;28;20190;-79
2023/07/07 12:18:56;;;;;;;4.80;2.15;;;29.00;51.80;;;;;;5074778;28;20219;-79
2023/07/07 12:21:28;;;;;;;4.10;1.92;;;29.00;51.80;;;;;;5075087;28;20199;-78
2023/07/07 12:24:00;;;;;;;3.38;1.80;;;28.90;50.80;;;;;;5074541;28;20199;-78
2023/07/07 12:26:30;;;;;;;3.03;2.15;;;28.90;50.40;;;;;;5074462;28;20191;-78
2023/07/07 12:29:01;;;;;;;3.15;1.27;;;28.90;51.30;;;;;;5073788;28;20242;-78
2023/07/07 12:31:29;;;;;;;1.95;1.77;;;28.90;50.30;;;;;;5074254;28;20207;-78
2023/07/07 12:33:57;;;;;;;4.30;2.78;;;28.80;51.50;;;;;;5074251;28;20205;-78
2023/07/07 12:36:29;;;;;;;4.15;2.13;;;28.80;50.30;;;;;;5073937;28;20675;-78
2023/07/07 12:38:59;;;;;;;3.83;2.05;;;28.80;51.90;;;;;;5073833;28;20232;-79
2023/07/07 12:41:28;;;;;;;2.55;1.50;;;28.80;50.30;;;;;;5073282;28;20198;-79
2023/07/07 12:43:59;;;;;;;3.83;1.77;;;28.80;50.10;;;;;;5073778;28;20674;-78
2023/07/07 12:46:28;;;;;;;3.53;1.83;;;28.60;49.00;;;;;;5074058;28;20193;-78
2023/07/07 12:49:00;;;;;;;2.00;1.73;;;28.50;51.50;;;;;;5073596;28;20709;-78
2023/07/07 12:51:29;;;;;;;2.25;1.40;;;28.50;51.80;;;;;;5073906;28;20217;-78
2023/07/07 12:53:57;;;;;;;2.75;1.70;;;28.40;51.00;;;;;;5073920;28;20226;-79
2023/07/07 12:56:26;;;;;;;1.95;1.63;;;28.30;49.90;;;;;;5073842;28;20205;-79
2023/07/07 12:58:55;;;;;;;3.17;1.63;;;28.30;50.60;;;;;;5073804;28;20222;-79
2023/07/07 13:01:38;;;;;;;2.50;1.45;;;28.20;49.70;;;;;;5073779;28;20205;-78
2023/07/07 13:04:17;;;;;;;1.60;1.50;;;28.20;49.80;;;;;;5073874;28;20193;-78